sensor_id;sensor_type;location;lat;lon;timestamp;temperature;humidity
75821;DHT22;64454;51.984;9.838;2023-02-01T00:01:14;6.70;1.00
75821;DHT22;64454;51.984;9.838;2023-02-01T00:03:41;6.70;1.00
75821;DHT22;64454;51.984;9.838;2023-02-01T00:06:08;6.70;1.00
75821;DHT22;64454;51.984;9.838;2023-02-01T00:08:36;6.70;1.00
75821;DHT22;64454;51.984;9.838;2023-02-01T00:11:04;6.70;1.00
75821;DHT22;64454;51.984;9.838;2023-02-01T00:13:34;6.70;1.00
75821;DHT22;64454;51.984;9.838;2023-02-01T00:16:07;6.60;1.00
75821;DHT22;64454;51.984;9.838;2023-02-01T00:18:35;6.60;1.00
75821;DHT22;64454;51.984;9.838;2023-02-01T00:21:03;6.60;1.00
75821;DHT22;64454;51.984;9.838;2023-02-01T00:23:32;6.60;2.10
75821;DHT22;64454;51.984;9.838;2023-02-01T00:26:01;6.60;1.00
75821;DHT22;64454;51.984;9.838;2023-02-01T00:28:28;6.60;1.00
75821;DHT22;64454;51.984;9.838;2023-02-01T00:30:56;6.50;1.00
75821;DHT22;64454;51.984;9.838;2023-02-01T00:33:25;6.50;1.00
75821;DHT22;64454;51.984;9.838;2023-02-01T00:35:56;6.50;1.00
75821;DHT22;64454;51.984;9.838;2023-02-01T00:38:24;6.50;1.00
75821;DHT22;64454;51.984;9.838;2023-02-01T00:40:51;6.40;1.00
75821;DHT22;64454;51.984;9.838;2023-02-01T00:43:18;6.30;1.00
75821;DHT22;64454;51.984;9.838;2023-02-01T00:45:45;6.30;1.00
75821;DHT22;64454;51.984;9.838;2023-02-01T00:48:12;6.40;2.10
75821;DHT22;64454;51.984;9.838;2023-02-01T00:50:43;6.30;1.60
75821;DHT22;64454;51.984;9.838;2023-02-01T00:53:10;6.40;3.20
75821;DHT22;64454;51.984;9.838;2023-02-01T00:55:37;6.40;2.50
75821;DHT22;64454;51.984;9.838;2023-02-01T00:58:04;6.30;1.00
75821;DHT22;64454;51.984;9.838;2023-02-01T01:00:34;6.30;1.00
75821;DHT22;64454;51.984;9.838;2023-02-01T01:03:01;6.30;1.00
75821;DHT22;64454;51.984;9.838;2023-02-01T01:05:44;6.30;1.00
75821;DHT22;64454;51.984;9.838;2023-02-01T01:08:11;6.30;2.00
75821;DHT22;64454;51.984;9.838;2023-02-01T01:10:38;6.30;2.50
75821;DHT22;64454;51.984;9.838;2023-02-01T01:13:06;6.30;1.70
75821;DHT22;64454;51.984;9.838;2023-02-01T01:15:36;6.20;2.40
75821;DHT22;64454;51.984;9.838;2023-02-01T01:18:03;6.20;4.40
75821;DHT22;64454;51.984;9.838;2023-02-01T01:20:30;6.30;2.90
75821;DHT22;64454;51.984;9.838;2023-02-01T01:22:58;6.20;1.00
75821;DHT22;64454;51.984;9.838;2023-02-01T01:25:24;6.20;1.00
75821;DHT22;64454;51.984;9.838;2023-02-01T01:27:51;6.20;1.00
75821;DHT22;64454;51.984;9.838;2023-02-01T01:30:18;6.20;1.00
75821;DHT22;64454;51.984;9.838;2023-02-01T01:32:45;6.30;1.00
75821;DHT22;64454;51.984;9.838;2023-02-01T01:35:12;6.30;1.00
75821;DHT22;64454;51.984;9.838;2023-02-01T01:37:39;6.20;1.00
75821;DHT22;64454;51.984;9.838;2023-02-01T01:40:09;6.30;1.00
75821;DHT22;64454;51.984;9.838;2023-02-01T01:42:38;6.30;1.00
75821;DHT22;64454;51.984;9.838;2023-02-01T01:45:22;6.30;1.00
75821;DHT22;64454;51.984;9.838;2023-02-01T01:47:52;6.40;1.00
75821;DHT22;64454;51.984;9.838;2023-02-01T01:50:25;6.30;1.00
75821;DHT22;64454;51.984;9.838;2023-02-01T01:52:58;6.30;1.00
75821;DHT22;64454;51.984;9.838;2023-02-01T01:55:32;6.40;1.00
75821;DHT22;64454;51.984;9.838;2023-02-01T01:58:05;6.30;1.00
75821;DHT22;64454;51.984;9.838;2023-02-01T02:00:35;6.30;1.00
75821;DHT22;64454;51.984;9.838;2023-02-01T02:03:07;6.30;1.00
75821;DHT22;64454;51.984;9.838;2023-02-01T02:05:38;6.30;1.00
75821;DHT22;64454;51.984;9.838;2023-02-01T02:08:05;6.40;1.00
75821;DHT22;64454;51.984;9.838;2023-02-01T02:10:33;6.40;1.00
75821;DHT22;64454;51.984;9.838;2023-02-01T02:13:18;6.30;1.00
75821;DHT22;64454;51.984;9.838;2023-02-01T02:15:58;6.30;1.00
75821;DHT22;64454;51.984;9.838;2023-02-01T02:18:59;6.30;1.00
75821;DHT22;64454;51.984;9.838;2023-02-01T02:21:53;6.30;1.00
75821;DHT22;64454;51.984;9.838;2023-02-01T02:24:58;6.30;1.00
75821;DHT22;64454;51.984;9.838;2023-02-01T02:27:51;6.20;1.00
75821;DHT22;64454;51.984;9.838;2023-02-01T02:30:52;6.30;1.00
75821;DHT22;64454;51.984;9.838;2023-02-01T02:33:48;6.30;1.00
75821;DHT22;64454;51.984;9.838;2023-02-01T02:36:30;6.30;1.00
75821;DHT22;64454;51.984;9.838;2023-02-01T02:39:07;6.20;1.00
75821;DHT22;64454;51.984;9.838;2023-02-01T02:41:49;6.20;1.00
75821;DHT22;64454;51.984;9.838;2023-02-01T02:44:46;6.20;1.00
75821;DHT22;64454;51.984;9.838;2023-02-01T02:47:36;6.20;1.00
75821;DHT22;64454;51.984;9.838;2023-02-01T02:50:17;6.20;1.00
75821;DHT22;64454;51.984;9.838;2023-02-01T02:53:12;6.30;1.00
75821;DHT22;64454;51.984;9.838;2023-02-01T02:55:59;6.30;1.00
75821;DHT22;64454;51.984;9.838;2023-02-01T02:58:46;6.40;1.00
75821;DHT22;64454;51.984;9.838;2023-02-01T03:01:32;6.50;1.00
75821;DHT22;64454;51.984;9.838;2023-02-01T03:04:16;6.50;1.00
75821;DHT22;64454;51.984;9.838;2023-02-01T03:06:45;6.50;1.00
75821;DHT22;64454;51.984;9.838;2023-02-01T03:09:16;6.50;1.00
75821;DHT22;64454;51.984;9.838;2023-02-01T03:11:51;6.50;1.00
75821;DHT22;64454;51.984;9.838;2023-02-01T03:14:41;6.50;1.00
75821;DHT22;64454;51.984;9.838;2023-02-01T03:17:15;6.40;1.00
75821;DHT22;64454;51.984;9.838;2023-02-01T03:19:50;6.50;1.00
75821;DHT22;64454;51.984;9.838;2023-02-01T03:22:23;6.50;1.00
75821;DHT22;64454;51.984;9.838;2023-02-01T03:24:54;6.60;1.00
75821;DHT22;64454;51.984;9.838;2023-02-01T03:27:27;6.50;1.00
75821;DHT22;64454;51.984;9.838;2023-02-01T03:30:03;6.50;1.00
75821;DHT22;64454;51.984;9.838;2023-02-01T03:32:32;6.60;1.00
75821;DHT22;64454;51.984;9.838;2023-02-01T03:35:25;6.60;1.00
75821;DHT22;64454;51.984;9.838;2023-02-01T03:38:01;6.70;1.00
75821;DHT22;64454;51.984;9.838;2023-02-01T03:40:35;6.70;1.00
75821;DHT22;64454;51.984;9.838;2023-02-01T03:43:05;6.80;1.00
75821;DHT22;64454;51.984;9.838;2023-02-01T03:45:39;6.70;1.00
75821;DHT22;64454;51.984;9.838;2023-02-01T03:48:12;6.80;1.00
75821;DHT22;64454;51.984;9.838;2023-02-01T03:50:47;6.80;1.00
75821;DHT22;64454;51.984;9.838;2023-02-01T03:53:22;6.80;1.00
75821;DHT22;64454;51.984;9.838;2023-02-01T03:55:51;6.80;1.00
75821;DHT22;64454;51.984;9.838;2023-02-01T03:58:21;6.70;1.00
75821;DHT22;64454;51.984;9.838;2023-02-01T04:00:52;6.70;1.00
75821;DHT22;64454;51.984;9.838;2023-02-01T04:03:21;6.80;1.00
75821;DHT22;64454;51.984;9.838;2023-02-01T04:05:48;6.80;2.20
75821;DHT22;64454;51.984;9.838;2023-02-01T04:08:15;6.80;1.40
75821;DHT22;64454;51.984;9.838;2023-02-01T04:10:44;6.90;10.10
75821;DHT22;64454;51.984;9.838;2023-02-01T04:13:11;6.80;15.20
75821;DHT22;64454;51.984;9.838;2023-02-01T04:15:38;6.80;12.00
75821;DHT22;64454;51.984;9.838;2023-02-01T04:18:05;6.70;14.70
75821;DHT22;64454;51.984;9.838;2023-02-01T04:20:32;6.70;14.30
75821;DHT22;64454;51.984;9.838;2023-02-01T04:22:59;6.70;34.30
75821;DHT22;64454;51.984;9.838;2023-02-01T04:25:27;6.70;26.50
75821;DHT22;64454;51.984;9.838;2023-02-01T04:27:56;6.50;15.60
75821;DHT22;64454;51.984;9.838;2023-02-01T04:30:22;6.50;18.10
75821;DHT22;64454;51.984;9.838;2023-02-01T04:32:50;6.50;20.00
75821;DHT22;64454;51.984;9.838;2023-02-01T04:35:16;6.50;22.90
75821;DHT22;64454;51.984;9.838;2023-02-01T04:37:44;6.50;9.10
75821;DHT22;64454;51.984;9.838;2023-02-01T04:40:11;6.60;10.90
75821;DHT22;64454;51.984;9.838;2023-02-01T04:42:38;6.60;1.00
75821;DHT22;64454;51.984;9.838;2023-02-01T04:45:07;6.50;11.40
75821;DHT22;64454;51.984;9.838;2023-02-01T04:47:35;6.60;9.00
75821;DHT22;64454;51.984;9.838;2023-02-01T04:50:02;6.60;1.00
75821;DHT22;64454;51.984;9.838;2023-02-01T04:52:29;6.60;1.00
75821;DHT22;64454;51.984;9.838;2023-02-01T04:54:55;6.60;1.00
75821;DHT22;64454;51.984;9.838;2023-02-01T04:57:25;6.60;1.00
75821;DHT22;64454;51.984;9.838;2023-02-01T04:59:52;6.50;4.70
75821;DHT22;64454;51.984;9.838;2023-02-01T05:02:20;6.50;1.00
75821;DHT22;64454;51.984;9.838;2023-02-01T05:04:47;6.60;1.00
75821;DHT22;64454;51.984;9.838;2023-02-01T05:07:14;6.50;1.00
75821;DHT22;64454;51.984;9.838;2023-02-01T05:09:41;6.50;1.00
75821;DHT22;64454;51.984;9.838;2023-02-01T05:12:08;6.50;1.00
75821;DHT22;64454;51.984;9.838;2023-02-01T05:14:54;6.50;1.00
75821;DHT22;64454;51.984;9.838;2023-02-01T05:17:22;6.60;1.00
75821;DHT22;64454;51.984;9.838;2023-02-01T05:19:49;6.50;1.00
75821;DHT22;64454;51.984;9.838;2023-02-01T05:22:15;6.60;1.00
75821;DHT22;64454;51.984;9.838;2023-02-01T05:24:43;6.50;1.00
75821;DHT22;64454;51.984;9.838;2023-02-01T05:27:09;6.60;1.00
75821;DHT22;64454;51.984;9.838;2023-02-01T05:29:36;6.60;1.00
75821;DHT22;64454;51.984;9.838;2023-02-01T05:32:03;6.50;1.00
75821;DHT22;64454;51.984;9.838;2023-02-01T05:34:32;6.50;10.10
75821;DHT22;64454;51.984;9.838;2023-02-01T05:36:58;6.60;17.20
75821;DHT22;64454;51.984;9.838;2023-02-01T05:39:25;6.60;32.30
75821;DHT22;64454;51.984;9.838;2023-02-01T05:41:52;6.50;48.90
75821;DHT22;64454;51.984;9.838;2023-02-01T05:44:19;6.50;53.30
75821;DHT22;64454;51.984;9.838;2023-02-01T05:46:46;6.40;64.50
75821;DHT22;64454;51.984;9.838;2023-02-01T05:49:12;6.50;92.20
75821;DHT22;64454;51.984;9.838;2023-02-01T05:51:40;6.50;99.90
75821;DHT22;64454;51.984;9.838;2023-02-01T05:54:08;6.40;93.30
75821;DHT22;64454;51.984;9.838;2023-02-01T05:56:36;6.40;99.90
75821;DHT22;64454;51.984;9.838;2023-02-01T05:59:03;6.40;96.40
75821;DHT22;64454;51.984;9.838;2023-02-01T06:01:30;6.40;99.90
75821;DHT22;64454;51.984;9.838;2023-02-01T06:03:56;6.30;99.90
75821;DHT22;64454;51.984;9.838;2023-02-01T06:06:23;6.30;99.90
75821;DHT22;64454;51.984;9.838;2023-02-01T06:08:51;6.20;99.90
75821;DHT22;64454;51.984;9.838;2023-02-01T06:11:18;6.30;99.90
75821;DHT22;64454;51.984;9.838;2023-02-01T06:13:45;6.20;99.90
75821;DHT22;64454;51.984;9.838;2023-02-01T06:16:13;6.20;99.90
75821;DHT22;64454;51.984;9.838;2023-02-01T06:18:41;6.30;99.90
75821;DHT22;64454;51.984;9.838;2023-02-01T06:21:08;6.40;99.90
75821;DHT22;64454;51.984;9.838;2023-02-01T06:23:35;6.50;99.90
75821;DHT22;64454;51.984;9.838;2023-02-01T06:26:04;6.40;99.90
75821;DHT22;64454;51.984;9.838;2023-02-01T06:28:33;6.30;99.90
75821;DHT22;64454;51.984;9.838;2023-02-01T06:31:03;6.30;99.90
75821;DHT22;64454;51.984;9.838;2023-02-01T06:33:32;6.30;99.90
75821;DHT22;64454;51.984;9.838;2023-02-01T06:36:00;6.30;99.90
75821;DHT22;64454;51.984;9.838;2023-02-01T06:38:29;6.30;99.90
75821;DHT22;64454;51.984;9.838;2023-02-01T06:40:57;6.30;99.90
75821;DHT22;64454;51.984;9.838;2023-02-01T06:43:26;6.20;99.90
75821;DHT22;64454;51.984;9.838;2023-02-01T06:45:59;6.20;99.90
75821;DHT22;64454;51.984;9.838;2023-02-01T06:48:26;6.20;99.90
75821;DHT22;64454;51.984;9.838;2023-02-01T06:50:53;6.10;99.90
75821;DHT22;64454;51.984;9.838;2023-02-01T06:53:20;6.10;99.90
75821;DHT22;64454;51.984;9.838;2023-02-01T06:55:54;6.10;99.90
75821;DHT22;64454;51.984;9.838;2023-02-01T06:58:21;6.10;99.90
75821;DHT22;64454;51.984;9.838;2023-02-01T07:00:50;6.20;99.90
75821;DHT22;64454;51.984;9.838;2023-02-01T07:03:19;6.20;99.90
75821;DHT22;64454;51.984;9.838;2023-02-01T07:05:45;6.20;99.90
75821;DHT22;64454;51.984;9.838;2023-02-01T07:08:12;6.20;99.90
75821;DHT22;64454;51.984;9.838;2023-02-01T07:10:39;6.20;99.90
75821;DHT22;64454;51.984;9.838;2023-02-01T07:13:06;6.20;99.90
75821;DHT22;64454;51.984;9.838;2023-02-01T07:15:33;6.20;99.90
75821;DHT22;64454;51.984;9.838;2023-02-01T07:18:02;6.20;99.90
75821;DHT22;64454;51.984;9.838;2023-02-01T07:20:29;6.10;99.90
75821;DHT22;64454;51.984;9.838;2023-02-01T07:22:56;6.10;99.90
75821;DHT22;64454;51.984;9.838;2023-02-01T07:25:24;6.20;99.90
75821;DHT22;64454;51.984;9.838;2023-02-01T07:27:50;6.20;99.90
75821;DHT22;64454;51.984;9.838;2023-02-01T07:30:18;6.20;99.90
75821;DHT22;64454;51.984;9.838;2023-02-01T07:32:45;6.20;99.90
75821;DHT22;64454;51.984;9.838;2023-02-01T07:35:13;6.30;99.90
75821;DHT22;64454;51.984;9.838;2023-02-01T07:37:40;6.20;99.90
75821;DHT22;64454;51.984;9.838;2023-02-01T07:40:08;6.10;99.90
75821;DHT22;64454;51.984;9.838;2023-02-01T07:42:36;6.10;99.90
75821;DHT22;64454;51.984;9.838;2023-02-01T07:45:03;6.10;99.90
75821;DHT22;64454;51.984;9.838;2023-02-01T07:47:31;6.10;99.90
75821;DHT22;64454;51.984;9.838;2023-02-01T07:49:57;6.10;99.90
75821;DHT22;64454;51.984;9.838;2023-02-01T07:52:27;6.10;99.90
75821;DHT22;64454;51.984;9.838;2023-02-01T07:54:54;6.10;99.90
75821;DHT22;64454;51.984;9.838;2023-02-01T07:57:21;6.10;99.90
75821;DHT22;64454;51.984;9.838;2023-02-01T07:59:47;6.20;99.90
75821;DHT22;64454;51.984;9.838;2023-02-01T08:02:28;6.20;99.90
75821;DHT22;64454;51.984;9.838;2023-02-01T08:04:55;6.30;99.90
75821;DHT22;64454;51.984;9.838;2023-02-01T08:07:22;6.20;99.90
75821;DHT22;64454;51.984;9.838;2023-02-01T08:09:50;6.30;99.90
75821;DHT22;64454;51.984;9.838;2023-02-01T08:12:17;6.40;99.90
75821;DHT22;64454;51.984;9.838;2023-02-01T08:14:43;6.50;99.90
75821;DHT22;64454;51.984;9.838;2023-02-01T08:17:10;6.50;99.90
75821;DHT22;64454;51.984;9.838;2023-02-01T08:19:37;6.40;99.90
75821;DHT22;64454;51.984;9.838;2023-02-01T08:22:04;6.50;99.90
75821;DHT22;64454;51.984;9.838;2023-02-01T08:24:32;6.50;99.90
75821;DHT22;64454;51.984;9.838;2023-02-01T08:27:02;6.50;99.90
75821;DHT22;64454;51.984;9.838;2023-02-01T08:29:28;6.70;99.90
75821;DHT22;64454;51.984;9.838;2023-02-01T08:31:55;6.80;99.90
75821;DHT22;64454;51.984;9.838;2023-02-01T08:34:22;6.80;91.70
75821;DHT22;64454;51.984;9.838;2023-02-01T08:36:49;6.70;80.00
75821;DHT22;64454;51.984;9.838;2023-02-01T08:39:17;6.80;76.10
75821;DHT22;64454;51.984;9.838;2023-02-01T08:41:44;6.80;73.40
75821;DHT22;64454;51.984;9.838;2023-02-01T08:44:34;6.80;72.40
75821;DHT22;64454;51.984;9.838;2023-02-01T08:47:00;6.80;77.00
75821;DHT22;64454;51.984;9.838;2023-02-01T08:49:27;6.70;73.40
75821;DHT22;64454;51.984;9.838;2023-02-01T08:51:54;6.80;78.80
75821;DHT22;64454;51.984;9.838;2023-02-01T08:54:21;6.90;85.70
75821;DHT22;64454;51.984;9.838;2023-02-01T08:56:49;7.00;71.70
75821;DHT22;64454;51.984;9.838;2023-02-01T08:59:15;7.00;44.00
75821;DHT22;64454;51.984;9.838;2023-02-01T09:01:44;7.00;43.80
75821;DHT22;64454;51.984;9.838;2023-02-01T09:04:10;7.10;41.10
75821;DHT22;64454;51.984;9.838;2023-02-01T09:06:40;7.10;37.40
75821;DHT22;64454;51.984;9.838;2023-02-01T09:09:07;7.10;32.20
75821;DHT22;64454;51.984;9.838;2023-02-01T09:11:34;7.20;48.20
75821;DHT22;64454;51.984;9.838;2023-02-01T09:14:01;7.20;19.10
75821;DHT22;64454;51.984;9.838;2023-02-01T09:16:27;7.10;26.80
75821;DHT22;64454;51.984;9.838;2023-02-01T09:18:56;7.10;67.70
75821;DHT22;64454;51.984;9.838;2023-02-01T09:21:22;7.10;99.90
75821;DHT22;64454;51.984;9.838;2023-02-01T09:23:50;7.00;99.90
75821;DHT22;64454;51.984;9.838;2023-02-01T09:26:17;7.00;99.90
75821;DHT22;64454;51.984;9.838;2023-02-01T09:28:44;7.00;99.90
75821;DHT22;64454;51.984;9.838;2023-02-01T09:31:11;7.10;99.90
75821;DHT22;64454;51.984;9.838;2023-02-01T09:33:38;7.30;99.90
75821;DHT22;64454;51.984;9.838;2023-02-01T09:36:07;7.20;99.90
75821;DHT22;64454;51.984;9.838;2023-02-01T09:38:34;7.10;98.00
75821;DHT22;64454;51.984;9.838;2023-02-01T09:41:01;7.20;97.70
75821;DHT22;64454;51.984;9.838;2023-02-01T09:43:37;7.20;93.50
75821;DHT22;64454;51.984;9.838;2023-02-01T09:46:20;7.30;91.10
75821;DHT22;64454;51.984;9.838;2023-02-01T09:48:52;7.20;81.40
75821;DHT22;64454;51.984;9.838;2023-02-01T09:51:24;7.20;51.40
75821;DHT22;64454;51.984;9.838;2023-02-01T09:53:59;7.20;46.90
75821;DHT22;64454;51.984;9.838;2023-02-01T09:56:34;7.10;29.30
75821;DHT22;64454;51.984;9.838;2023-02-01T09:59:17;7.20;36.60
75821;DHT22;64454;51.984;9.838;2023-02-01T10:01:53;7.30;43.30
75821;DHT22;64454;51.984;9.838;2023-02-01T10:04:19;7.60;40.20
75821;DHT22;64454;51.984;9.838;2023-02-01T10:06:58;7.60;13.60
75821;DHT22;64454;51.984;9.838;2023-02-01T10:09:46;7.70;16.10
75821;DHT22;64454;51.984;9.838;2023-02-01T10:12:43;7.70;9.50
75821;DHT22;64454;51.984;9.838;2023-02-01T10:15:42;7.80;2.10
75821;DHT22;64454;51.984;9.838;2023-02-01T10:18:40;8.00;1.00
75821;DHT22;64454;51.984;9.838;2023-02-01T10:21:23;8.20;1.00
75821;DHT22;64454;51.984;9.838;2023-02-01T10:24:34;8.40;1.00
75821;DHT22;64454;51.984;9.838;2023-02-01T10:27:12;8.60;1.00
75821;DHT22;64454;51.984;9.838;2023-02-01T10:29:43;8.80;1.00
75821;DHT22;64454;51.984;9.838;2023-02-01T10:32:16;9.10;1.00
75821;DHT22;64454;51.984;9.838;2023-02-01T10:34:50;9.40;1.00
75821;DHT22;64454;51.984;9.838;2023-02-01T10:37:26;9.60;1.00
75821;DHT22;64454;51.984;9.838;2023-02-01T10:39:57;9.50;1.00
75821;DHT22;64454;51.984;9.838;2023-02-01T10:42:27;9.30;1.00
75821;DHT22;64454;51.984;9.838;2023-02-01T10:44:57;9.30;1.00
75821;DHT22;64454;51.984;9.838;2023-02-01T10:47:27;9.10;1.00
75821;DHT22;64454;51.984;9.838;2023-02-01T10:50:02;9.00;1.00
75821;DHT22;64454;51.984;9.838;2023-02-01T10:52:44;8.70;1.00
75821;DHT22;64454;51.984;9.838;2023-02-01T10:55:32;8.50;1.00
75821;DHT22;64454;51.984;9.838;2023-02-01T10:58:04;8.50;1.00
75821;DHT22;64454;51.984;9.838;2023-02-01T11:00:38;8.60;1.00
75821;DHT22;64454;51.984;9.838;2023-02-01T11:03:21;8.70;1.00
75821;DHT22;64454;51.984;9.838;2023-02-01T11:05:58;8.80;1.00
75821;DHT22;64454;51.984;9.838;2023-02-01T11:08:25;8.70;1.00
75821;DHT22;64454;51.984;9.838;2023-02-01T11:10:59;8.70;1.00
75821;DHT22;64454;51.984;9.838;2023-02-01T11:13:31;8.70;1.00
75821;DHT22;64454;51.984;9.838;2023-02-01T11:16:04;8.70;1.00
75821;DHT22;64454;51.984;9.838;2023-02-01T11:18:36;8.60;1.00
75821;DHT22;64454;51.984;9.838;2023-02-01T11:21:04;8.40;1.00
75821;DHT22;64454;51.984;9.838;2023-02-01T11:23:33;8.40;1.00
75821;DHT22;64454;51.984;9.838;2023-02-01T11:26:11;8.20;1.00
75821;DHT22;64454;51.984;9.838;2023-02-01T11:28:46;8.10;1.00
75821;DHT22;64454;51.984;9.838;2023-02-01T11:31:18;8.10;1.00
75821;DHT22;64454;51.984;9.838;2023-02-01T11:33:50;8.10;1.00
75821;DHT22;64454;51.984;9.838;2023-02-01T11:36:22;8.10;1.00
75821;DHT22;64454;51.984;9.838;2023-02-01T11:38:54;8.00;1.00
75821;DHT22;64454;51.984;9.838;2023-02-01T11:41:41;8.00;1.00
75821;DHT22;64454;51.984;9.838;2023-02-01T11:44:20;8.00;1.00
75821;DHT22;64454;51.984;9.838;2023-02-01T11:46:49;7.80;1.00
75821;DHT22;64454;51.984;9.838;2023-02-01T11:49:21;7.80;1.00
75821;DHT22;64454;51.984;9.838;2023-02-01T11:51:59;7.70;1.00
75821;DHT22;64454;51.984;9.838;2023-02-01T11:54:45;7.80;1.00
75821;DHT22;64454;51.984;9.838;2023-02-01T11:57:42;7.70;1.00
75821;DHT22;64454;51.984;9.838;2023-02-01T12:00:40;7.80;1.00
75821;DHT22;64454;51.984;9.838;2023-02-01T12:06:39;7.80;1.00
75821;DHT22;64454;51.984;9.838;2023-02-01T12:09:32;7.80;1.00
75821;DHT22;64454;51.984;9.838;2023-02-01T12:12:13;7.80;1.00
75821;DHT22;64454;51.984;9.838;2023-02-01T12:15:03;7.80;1.00
75821;DHT22;64454;51.984;9.838;2023-02-01T12:17:50;7.70;1.00
75821;DHT22;64454;51.984;9.838;2023-02-01T12:20:48;7.80;1.00
75821;DHT22;64454;51.984;9.838;2023-02-01T12:23:40;8.00;1.00
75821;DHT22;64454;51.984;9.838;2023-02-01T12:26:39;8.20;1.00
75821;DHT22;64454;51.984;9.838;2023-02-01T12:29:30;8.20;1.00
75821;DHT22;64454;51.984;9.838;2023-02-01T12:32:24;8.20;1.00
75821;DHT22;64454;51.984;9.838;2023-02-01T12:35:13;8.30;1.00
75821;DHT22;64454;51.984;9.838;2023-02-01T12:37:58;8.20;1.00
75821;DHT22;64454;51.984;9.838;2023-02-01T12:40:47;8.30;1.00
75821;DHT22;64454;51.984;9.838;2023-02-01T12:43:36;8.30;1.00
75821;DHT22;64454;51.984;9.838;2023-02-01T12:46:12;8.50;1.00
75821;DHT22;64454;51.984;9.838;2023-02-01T12:48:57;8.60;1.00
75821;DHT22;64454;51.984;9.838;2023-02-01T12:51:29;8.40;1.00
75821;DHT22;64454;51.984;9.838;2023-02-01T12:54:04;8.30;1.00
75821;DHT22;64454;51.984;9.838;2023-02-01T12:56:40;8.10;1.00
75821;DHT22;64454;51.984;9.838;2023-02-01T12:59:19;7.90;1.00
75821;DHT22;64454;51.984;9.838;2023-02-01T13:01:53;7.80;1.00
75821;DHT22;64454;51.984;9.838;2023-02-01T13:04:31;7.80;1.00
75821;DHT22;64454;51.984;9.838;2023-02-01T13:07:09;7.70;1.00
75821;DHT22;64454;51.984;9.838;2023-02-01T13:09:44;7.60;1.00
75821;DHT22;64454;51.984;9.838;2023-02-01T13:12:18;7.50;7.00
75821;DHT22;64454;51.984;9.838;2023-02-01T13:14:54;7.40;20.10
75821;DHT22;64454;51.984;9.838;2023-02-01T13:17:25;7.30;32.00
75821;DHT22;64454;51.984;9.838;2023-02-01T13:19:58;7.20;59.90
75821;DHT22;64454;51.984;9.838;2023-02-01T13:22:31;7.00;87.20
75821;DHT22;64454;51.984;9.838;2023-02-01T13:25:02;7.00;99.90
75821;DHT22;64454;51.984;9.838;2023-02-01T13:27:32;6.90;99.90
75821;DHT22;64454;51.984;9.838;2023-02-01T13:30:01;6.90;99.90
75821;DHT22;64454;51.984;9.838;2023-02-01T13:32:55;6.90;99.90
75821;DHT22;64454;51.984;9.838;2023-02-01T13:35:47;7.00;99.90
75821;DHT22;64454;51.984;9.838;2023-02-01T13:38:50;7.10;99.90
75821;DHT22;64454;51.984;9.838;2023-02-01T13:41:51;7.10;99.90
75821;DHT22;64454;51.984;9.838;2023-02-01T13:44:26;7.00;99.90
75821;DHT22;64454;51.984;9.838;2023-02-01T13:46:59;7.00;99.90
75821;DHT22;64454;51.984;9.838;2023-02-01T13:49:31;7.10;99.90
75821;DHT22;64454;51.984;9.838;2023-02-01T13:52:06;7.00;99.90
75821;DHT22;64454;51.984;9.838;2023-02-01T13:55:13;7.00;99.90
75821;DHT22;64454;51.984;9.838;2023-02-01T13:57:51;6.90;99.90
75821;DHT22;64454;51.984;9.838;2023-02-01T14:00:27;6.80;99.90
75821;DHT22;64454;51.984;9.838;2023-02-01T14:03:12;6.80;99.90
75821;DHT22;64454;51.984;9.838;2023-02-01T14:09:19;6.70;99.90
75821;DHT22;64454;51.984;9.838;2023-02-01T14:11:58;6.60;99.90
75821;DHT22;64454;51.984;9.838;2023-02-01T14:15:17;6.50;99.90
75821;DHT22;64454;51.984;9.838;2023-02-01T14:17:48;6.50;99.90
75821;DHT22;64454;51.984;9.838;2023-02-01T14:20:43;6.50;99.90
75821;DHT22;64454;51.984;9.838;2023-02-01T14:23:29;6.50;99.90
75821;DHT22;64454;51.984;9.838;2023-02-01T14:26:12;6.50;99.90
75821;DHT22;64454;51.984;9.838;2023-02-01T14:28:57;6.50;99.90
75821;DHT22;64454;51.984;9.838;2023-02-01T14:31:53;6.50;99.90
75821;DHT22;64454;51.984;9.838;2023-02-01T14:34:34;6.50;99.90
75821;DHT22;64454;51.984;9.838;2023-02-01T14:37:09;6.50;99.90
75821;DHT22;64454;51.984;9.838;2023-02-01T14:39:52;6.40;99.90
75821;DHT22;64454;51.984;9.838;2023-02-01T14:42:25;6.00;99.90
75821;DHT22;64454;51.984;9.838;2023-02-01T14:44:56;5.80;99.90
75821;DHT22;64454;51.984;9.838;2023-02-01T14:51:15;5.30;99.90
75821;DHT22;64454;51.984;9.838;2023-02-01T14:53:44;5.10;99.90
75821;DHT22;64454;51.984;9.838;2023-02-01T14:56:15;5.10;99.90
75821;DHT22;64454;51.984;9.838;2023-02-01T14:58:52;5.20;99.90
75821;DHT22;64454;51.984;9.838;2023-02-01T15:01:24;5.30;99.90
75821;DHT22;64454;51.984;9.838;2023-02-01T15:04:01;5.20;99.90
75821;DHT22;64454;51.984;9.838;2023-02-01T15:06:33;5.10;99.90
75821;DHT22;64454;51.984;9.838;2023-02-01T15:09:09;5.10;99.90
75821;DHT22;64454;51.984;9.838;2023-02-01T15:12:00;5.10;99.90
75821;DHT22;64454;51.984;9.838;2023-02-01T15:14:31;5.10;99.90
75821;DHT22;64454;51.984;9.838;2023-02-01T15:17:00;5.20;99.90
75821;DHT22;64454;51.984;9.838;2023-02-01T15:19:29;5.20;99.90
75821;DHT22;64454;51.984;9.838;2023-02-01T15:21:58;5.10;99.90
75821;DHT22;64454;51.984;9.838;2023-02-01T15:24:27;5.10;99.90
75821;DHT22;64454;51.984;9.838;2023-02-01T15:26:56;5.10;99.90
75821;DHT22;64454;51.984;9.838;2023-02-01T15:29:30;5.20;99.90
75821;DHT22;64454;51.984;9.838;2023-02-01T15:31:58;5.30;99.90
75821;DHT22;64454;51.984;9.838;2023-02-01T15:34:45;5.30;99.90
75821;DHT22;64454;51.984;9.838;2023-02-01T15:37:15;5.30;99.90
75821;DHT22;64454;51.984;9.838;2023-02-01T15:40:14;5.40;99.90
75821;DHT22;64454;51.984;9.838;2023-02-01T15:42:51;5.50;99.90
75821;DHT22;64454;51.984;9.838;2023-02-01T15:45:21;5.60;99.90
75821;DHT22;64454;51.984;9.838;2023-02-01T15:47:53;5.60;99.90
75821;DHT22;64454;51.984;9.838;2023-02-01T15:50:23;5.40;99.90
75821;DHT22;64454;51.984;9.838;2023-02-01T15:52:52;5.40;99.90
75821;DHT22;64454;51.984;9.838;2023-02-01T15:55:22;5.40;99.90
75821;DHT22;64454;51.984;9.838;2023-02-01T15:57:56;5.60;99.90
75821;DHT22;64454;51.984;9.838;2023-02-01T16:00:25;5.60;99.90
75821;DHT22;64454;51.984;9.838;2023-02-01T16:02:55;5.60;99.90
75821;DHT22;64454;51.984;9.838;2023-02-01T16:05:31;5.70;99.90
75821;DHT22;64454;51.984;9.838;2023-02-01T16:08:03;5.70;99.90
75821;DHT22;64454;51.984;9.838;2023-02-01T16:10:39;5.80;99.90
75821;DHT22;64454;51.984;9.838;2023-02-01T16:13:07;5.60;99.90
75821;DHT22;64454;51.984;9.838;2023-02-01T16:15:34;5.60;99.90
75821;DHT22;64454;51.984;9.838;2023-02-01T16:18:01;5.60;99.90
75821;DHT22;64454;51.984;9.838;2023-02-01T16:20:30;5.70;99.90
75821;DHT22;64454;51.984;9.838;2023-02-01T16:22:58;5.80;99.90
75821;DHT22;64454;51.984;9.838;2023-02-01T16:25:25;5.70;99.90
75821;DHT22;64454;51.984;9.838;2023-02-01T16:27:52;5.70;99.90
75821;DHT22;64454;51.984;9.838;2023-02-01T16:30:19;5.50;99.90
75821;DHT22;64454;51.984;9.838;2023-02-01T16:32:48;5.50;99.90
75821;DHT22;64454;51.984;9.838;2023-02-01T16:35:20;5.40;99.90
75821;DHT22;64454;51.984;9.838;2023-02-01T16:37:51;5.40;99.90
75821;DHT22;64454;51.984;9.838;2023-02-01T16:40:19;5.40;99.90
75821;DHT22;64454;51.984;9.838;2023-02-01T16:42:49;5.30;99.90